Time;durP1;ratioP1;P1;durP2;ratioP2;P2;SDS_P1;SDS_P2;PMS_P1;PMS_P2;Temp;Humidity;BMP_temperature;BMP_pressure;BME280_temperature;BME280_humidity;BME280_pressure;Samples;Min_cycle;Max_cycle;Signal;HPM_P1;HPM_P2
2022/04/18 00:00:22;;;;;;;11.30;3.95;;;8.70;93.30;;;;;;4997058;28;20049;-77
2022/04/18 00:02:47;;;;;;;10.30;4.70;;;8.60;93.60;;;;;;5012717;28;20509;-76
2022/04/18 00:05:13;;;;;;;14.60;5.25;;;8.50;93.90;;;;;;5012902;28;20065;-76
2022/04/18 00:07:38;;;;;;;8.45;4.15;;;8.40;93.50;;;;;;5013259;28;20033;-76
2022/04/18 00:10:04;;;;;;;7.75;4.43;;;8.40;93.70;;;;;;5012922;28;20031;-77
2022/04/18 00:12:30;;;;;;;8.73;4.35;;;8.40;93.20;;;;;;5012641;28;20033;-78
2022/04/18 00:14:57;;;;;;;7.00;3.45;;;8.40;93.70;;;;;;5013263;28;20089;-76
2022/04/18 00:17:22;;;;;;;13.13;3.90;;;8.40;93.30;;;;;;4995525;28;20026;-77
2022/04/18 00:19:48;;;;;;;8.38;4.03;;;8.40;93.70;;;;;;5013447;28;20029;-79
2022/04/18 00:22:14;;;;;;;11.48;4.10;;;8.40;93.50;;;;;;5013428;28;20045;-75
2022/04/18 00:24:39;;;;;;;10.15;3.53;;;8.40;93.50;;;;;;5012833;28;20221;-77
2022/04/18 00:27:05;;;;;;;6.18;3.13;;;8.40;93.30;;;;;;5012774;28;20053;-75
2022/04/18 00:29:30;;;;;;;7.68;2.88;;;8.30;93.10;;;;;;4997052;28;20038;-77
2022/04/18 00:31:56;;;;;;;9.80;3.80;;;8.30;93.60;;;;;;5012975;28;20040;-77
2022/04/18 00:34:29;;;;;;;8.07;3.88;;;8.30;94.00;;;;;;4995512;28;20104;-78
2022/04/18 00:36:55;;;;;;;12.07;3.57;;;8.30;94.00;;;;;;5012863;28;20030;-76
2022/04/18 00:39:21;;;;;;;6.25;2.80;;;8.30;93.60;;;;;;5012775;28;20068;-76
2022/04/18 00:41:47;;;;;;;6.75;3.13;;;8.30;94.00;;;;;;4994822;28;20031;-76
2022/04/18 00:44:13;;;;;;;7.20;3.47;;;8.20;94.10;;;;;;5012659;28;20030;-75
2022/04/18 00:46:39;;;;;;;4.88;2.63;;;8.30;94.70;;;;;;4994853;28;20068;-77
2022/04/18 00:49:04;;;;;;;4.95;3.05;;;8.20;94.90;;;;;;5012435;28;20054;-77
2022/04/18 00:51:30;;;;;;;6.55;3.13;;;8.10;94.70;;;;;;4995251;28;20025;-77
2022/04/18 00:53:58;;;;;;;9.35;2.80;;;8.10;95.00;;;;;;4994801;28;20084;-77
2022/04/18 00:56:25;;;;;;;14.18;3.13;;;8.10;94.80;;;;;;4995661;28;20069;-79
2022/04/18 00:58:51;;;;;;;5.30;3.35;;;7.90;95.10;;;;;;4994727;28;20460;-78
2022/04/18 01:01:18;;;;;;;7.00;3.60;;;8.00;95.30;;;;;;5012450;28;20037;-79
2022/04/18 01:03:53;;;;;;;6.60;2.88;;;8.00;95.30;;;;;;5012575;28;20021;-78
2022/04/18 01:06:19;;;;;;;12.30;3.65;;;7.90;95.30;;;;;;4994500;28;20144;-80
2022/04/18 01:08:48;;;;;;;5.53;2.78;;;7.90;96.00;;;;;;4994439;28;20050;-79
2022/04/18 01:11:14;;;;;;;9.15;3.45;;;7.80;95.80;;;;;;5012763;28;20022;-78
2022/04/18 01:13:45;;;;;;;12.13;3.85;;;7.80;96.20;;;;;;5011953;28;20026;-78
2022/04/18 01:16:11;;;;;;;6.53;2.97;;;7.70;96.80;;;;;;5011963;28;20073;-78
2022/04/18 01:18:38;;;;;;;9.70;3.47;;;7.60;97.00;;;;;;5012355;28;20022;-80
2022/04/18 01:21:05;;;;;;;5.78;2.78;;;7.50;97.40;;;;;;5012360;28;20026;-80
2022/04/18 01:23:31;;;;;;;8.75;3.90;;;7.40;96.90;;;;;;5012356;28;20022;-78
2022/04/18 01:29:01;;;;;;;5.63;2.90;;;7.50;97.80;;;;;;5012447;28;20085;-77
2022/04/18 01:31:29;;;;;;;6.50;2.58;;;7.40;98.50;;;;;;5012166;28;20027;-76
2022/04/18 01:33:56;;;;;;;10.05;3.95;;;7.40;98.10;;;;;;4994720;28;20054;-78
2022/04/18 01:36:22;;;;;;;6.20;3.40;;;7.40;97.40;;;;;;4993847;28;20055;-80
2022/04/18 01:38:48;;;;;;;5.57;3.10;;;7.40;98.70;;;;;;5015469;28;20026;-76
2022/04/18 01:41:14;;;;;;;12.93;3.28;;;7.40;98.40;;;;;;5015523;28;20084;-74
2022/04/18 01:43:40;;;;;;;8.07;3.10;;;7.30;98.70;;;;;;4998241;28;20023;-75
2022/04/18 01:46:06;;;;;;;9.82;3.47;;;7.30;98.60;;;;;;4998152;28;20034;-78
2022/04/18 01:48:31;;;;;;;7.13;2.78;;;7.30;98.90;;;;;;5015542;28;20398;-77
2022/04/18 01:50:57;;;;;;;6.97;3.28;;;7.30;98.90;;;;;;4997971;28;20086;-79
2022/04/18 01:53:23;;;;;;;7.50;3.10;;;7.30;98.70;;;;;;5015840;28;20073;-75
2022/04/18 01:55:49;;;;;;;4.55;2.42;;;7.20;99.30;;;;;;5015928;28;20034;-79
2022/04/18 01:58:14;;;;;;;4.18;2.33;;;7.20;99.50;;;;;;4998325;28;20033;-76
2022/04/18 02:00:40;;;;;;;6.53;2.70;;;7.20;99.90;;;;;;5015647;28;20017;-79
2022/04/18 02:03:05;;;;;;;5.70;2.78;;;7.10;99.90;;;;;;5014419;28;20049;-77
2022/04/18 02:05:31;;;;;;;5.32;2.78;;;7.10;99.90;;;;;;5015691;28;20057;-79
2022/04/18 02:07:58;;;;;;;4.88;3.17;;;7.10;99.90;;;;;;4997744;28;20018;-78
2022/04/18 02:10:24;;;;;;;11.73;3.10;;;7.10;99.90;;;;;;5015367;28;20376;-77
2022/04/18 02:12:50;;;;;;;5.75;2.67;;;7.00;99.90;;;;;;4997875;28;20018;-80
2022/04/18 02:15:15;;;;;;;6.40;2.72;;;7.00;99.90;;;;;;5015398;28;20081;-76
2022/04/18 02:17:42;;;;;;;5.80;3.17;;;6.90;99.90;;;;;;5014235;28;20022;-78
2022/04/18 02:20:08;;;;;;;7.10;2.85;;;6.90;99.90;;;;;;5015383;28;20038;-78
2022/04/18 02:22:33;;;;;;;7.63;2.80;;;6.80;99.90;;;;;;4997611;28;20026;-77
2022/04/18 02:24:59;;;;;;;6.47;3.47;;;6.80;99.90;;;;;;5014522;28;20014;-80
2022/04/18 02:27:26;;;;;;;6.40;3.38;;;6.70;99.90;;;;;;5014893;28;20040;-78
2022/04/18 02:29:51;;;;;;;6.78;3.05;;;6.70;99.90;;;;;;4997000;28;20037;-75
2022/04/18 02:35:01;;;;;;;5.55;3.33;;;6.50;99.90;;;;;;5014853;28;20141;-78
2022/04/18 02:37:27;;;;;;;7.07;3.05;;;6.50;99.90;;;;;;5014855;28;20033;-78
2022/04/18 02:39:54;;;;;;;6.05;2.72;;;6.50;99.90;;;;;;5015066;28;20026;-76
2022/04/18 02:42:20;;;;;;;5.07;2.83;;;6.50;99.90;;;;;;5014661;28;20049;-75
2022/04/18 02:44:48;;;;;;;7.57;3.47;;;6.50;99.90;;;;;;5014745;28;20026;-77
2022/04/18 02:47:14;;;;;;;5.53;2.78;;;6.40;99.90;;;;;;4996670;28;20022;-75
2022/04/18 02:49:39;;;;;;;7.15;3.17;;;6.40;99.90;;;;;;5013320;28;20054;-76
2022/04/18 02:52:09;;;;;;;6.55;3.40;;;6.40;99.90;;;;;;4999139;28;20068;-78
2022/04/18 02:54:35;;;;;;;11.25;4.18;;;6.30;99.90;;;;;;5014267;28;20081;-77
2022/04/18 02:57:01;;;;;;;5.70;3.35;;;6.30;99.90;;;;;;5014758;28;20030;-79
2022/04/18 02:59:27;;;;;;;6.15;3.03;;;6.30;99.90;;;;;;5014376;28;20026;-76
2022/04/18 03:01:53;;;;;;;7.85;3.80;;;6.30;99.90;;;;;;5014141;28;20061;-78
2022/04/18 03:04:18;;;;;;;10.02;3.35;;;6.20;99.90;;;;;;4996583;28;20026;-79
2022/04/18 03:06:44;;;;;;;8.40;3.30;;;6.20;99.90;;;;;;5013992;28;20026;-77
2022/04/18 03:09:10;;;;;;;9.63;4.00;;;6.10;99.90;;;;;;5013895;28;20022;-78
2022/04/18 03:11:35;;;;;;;16.98;4.28;;;6.20;99.90;;;;;;4996302;28;20022;-80
2022/04/18 03:14:01;;;;;;;9.00;3.38;;;6.20;99.90;;;;;;5014675;28;20047;-80
2022/04/18 03:16:26;;;;;;;11.15;3.92;;;6.10;99.90;;;;;;5014304;28;20030;-79
2022/04/18 03:18:52;;;;;;;8.48;3.83;;;6.10;99.90;;;;;;4995472;28;20062;-77
2022/04/18 03:21:18;;;;;;;8.77;3.78;;;6.10;99.90;;;;;;5014127;28;20367;-78
2022/04/18 03:23:46;;;;;;;8.02;3.45;;;6.00;99.90;;;;;;5013894;28;20386;-80
2022/04/18 03:26:13;;;;;;;8.18;3.35;;;6.00;99.90;;;;;;4995527;28;20022;-80
2022/04/18 03:28:38;;;;;;;8.98;4.25;;;6.00;99.90;;;;;;5013796;28;20022;-78
2022/04/18 03:31:04;;;;;;;10.05;4.28;;;6.00;99.90;;;;;;4996005;28;20026;-78
2022/04/18 03:33:31;;;;;;;10.82;4.03;;;6.00;99.90;;;;;;5012854;28;20038;-81
2022/04/18 03:41:25;;;;;;;11.73;3.97;;;5.90;99.90;;;;;;5010452;28;20113;-77
2022/04/18 03:43:53;;;;;;;7.63;4.07;;;5.80;99.90;;;;;;4993515;28;20061;-78
2022/04/18 03:46:24;;;;;;;9.13;4.88;;;5.80;99.90;;;;;;5009842;28;20034;-79
2022/04/18 03:48:54;;;;;;;12.57;5.13;;;5.70;99.90;;;;;;5009096;28;20057;-78
2022/04/18 03:51:19;;;;;;;9.07;4.35;;;5.60;99.90;;;;;;5009168;28;20114;-78
2022/04/18 03:53:45;;;;;;;8.30;3.83;;;5.60;99.90;;;;;;5009253;28;20065;-76
2022/04/18 03:56:11;;;;;;;12.73;4.70;;;5.60;99.90;;;;;;5008476;28;20038;-80
2022/04/18 03:58:37;;;;;;;11.30;4.72;;;5.50;99.90;;;;;;5006994;28;20956;-77
2022/04/18 04:01:02;;;;;;;9.25;4.20;;;5.50;99.90;;;;;;5008309;28;20056;-78
2022/04/18 04:03:40;;;;;;;13.13;4.35;;;5.60;99.90;;;;;;5008548;28;20061;-77
2022/04/18 04:06:06;;;;;;;9.13;3.90;;;5.50;99.90;;;;;;5008719;28;20035;-79
2022/04/18 04:08:39;;;;;;;8.73;4.32;;;5.60;99.90;;;;;;4991674;28;20025;-79
2022/04/18 04:11:05;;;;;;;11.02;4.07;;;5.50;99.90;;;;;;5025820;28;20098;-79
2022/04/18 04:13:31;;;;;;;8.50;4.07;;;5.50;99.90;;;;;;4995225;28;20061;-78
2022/04/18 04:15:57;;;;;;;13.05;5.30;;;5.50;99.90;;;;;;5012838;28;20034;-79
2022/04/18 04:18:23;;;;;;;13.52;5.05;;;5.50;99.90;;;;;;4995387;28;20389;-79
2022/04/18 04:20:49;;;;;;;11.55;4.47;;;5.50;99.90;;;;;;5012208;28;20042;-78
2022/04/18 04:23:14;;;;;;;7.63;4.05;;;5.50;99.90;;;;;;4995454;28;20022;-77
2022/04/18 04:25:40;;;;;;;10.70;5.07;;;5.40;99.90;;;;;;4995142;28;20021;-77
2022/04/18 04:28:06;;;;;;;10.48;4.00;;;5.40;99.90;;;;;;5012695;28;20026;-77
2022/04/18 04:30:31;;;;;;;10.63;4.05;;;5.50;99.90;;;;;;4995066;28;20042;-77
2022/04/18 04:32:57;;;;;;;9.50;3.80;;;5.40;99.90;;;;;;4994865;28;20089;-78
2022/04/18 04:35:23;;;;;;;7.35;3.42;;;5.40;99.90;;;;;;5012530;28;20025;-78
2022/04/18 04:37:48;;;;;;;13.48;3.97;;;5.40;99.90;;;;;;5012228;28;20479;-79
2022/04/18 04:40:14;;;;;;;15.23;4.80;;;5.40;99.90;;;;;;5012598;28;20498;-78
2022/04/18 04:42:39;;;;;;;10.38;4.10;;;5.40;99.90;;;;;;5011683;28;20019;-78
2022/04/18 04:45:06;;;;;;;13.15;4.40;;;5.30;99.90;;;;;;5012627;28;20045;-79
2022/04/18 04:47:31;;;;;;;7.05;3.85;;;5.30;99.90;;;;;;5011797;28;20065;-77
2022/04/18 04:49:57;;;;;;;9.35;4.93;;;5.30;99.90;;;;;;5012489;28;20025;-77
2022/04/18 04:52:22;;;;;;;7.85;3.92;;;5.30;99.90;;;;;;5012762;28;20049;-78
2022/04/18 04:54:49;;;;;;;10.90;3.97;;;5.40;99.90;;;;;;4994729;28;20061;-79
2022/04/18 04:57:15;;;;;;;9.68;4.50;;;5.40;99.90;;;;;;5012387;28;20031;-76
2022/04/18 04:59:40;;;;;;;14.20;4.43;;;5.40;99.90;;;;;;5012447;28;20162;-80
2022/04/18 05:02:06;;;;;;;7.82;4.07;;;5.40;99.90;;;;;;5011687;28;20029;-78
2022/04/18 05:04:32;;;;;;;13.45;3.95;;;5.40;99.90;;;;;;4994750;28;20053;-80
2022/04/18 05:06:58;;;;;;;9.43;3.72;;;5.50;99.90;;;;;;5012071;28;20050;-79
2022/04/18 05:09:23;;;;;;;8.35;3.88;;;5.40;99.90;;;;;;5012153;28;20030;-78
2022/04/18 05:11:49;;;;;;;8.07;4.00;;;5.50;99.90;;;;;;5012959;28;20491;-79
2022/04/18 05:14:18;;;;;;;11.57;4.25;;;5.50;99.90;;;;;;5015978;28;20034;-80
2022/04/18 05:16:44;;;;;;;11.25;4.60;;;5.50;99.90;;;;;;5016133;28;20551;-78
2022/04/18 05:19:09;;;;;;;7.90;4.43;;;5.60;99.90;;;;;;5015734;28;20026;-79
2022/04/18 05:21:35;;;;;;;12.68;4.30;;;5.60;99.90;;;;;;4998572;28;20049;-77
2022/04/18 05:24:01;;;;;;;7.13;3.83;;;5.70;99.90;;;;;;5015701;28;20033;-81
2022/04/18 05:26:28;;;;;;;9.27;4.00;;;5.70;99.90;;;;;;5017134;28;20025;-79
2022/04/18 05:28:53;;;;;;;8.25;4.25;;;5.70;99.90;;;;;;5015512;28;20559;-78
2022/04/18 05:31:19;;;;;;;8.75;4.35;;;5.80;99.90;;;;;;4998255;28;20474;-77
2022/04/18 05:33:45;;;;;;;7.15;3.75;;;5.80;99.90;;;;;;5014136;28;20061;-78
2022/04/18 05:36:11;;;;;;;6.18;3.58;;;5.90;99.90;;;;;;5013498;28;20031;-78
2022/04/18 05:38:37;;;;;;;7.88;4.40;;;5.90;99.90;;;;;;4997739;28;20026;-78
2022/04/18 05:41:02;;;;;;;8.18;3.28;;;6.00;99.90;;;;;;5016112;28;20492;-77
2022/04/18 05:43:29;;;;;;;12.70;4.53;;;6.10;99.90;;;;;;4997182;28;20634;-77
2022/04/18 05:45:55;;;;;;;7.35;4.20;;;6.10;99.90;;;;;;5016189;28;20022;-77
2022/04/18 05:48:20;;;;;;;6.45;3.38;;;6.20;99.90;;;;;;5017714;28;20049;-78
2022/04/18 05:50:47;;;;;;;15.23;4.60;;;6.20;99.90;;;;;;4998081;28;20035;-76
2022/04/18 05:53:14;;;;;;;8.80;4.38;;;6.30;99.90;;;;;;5015904;28;20081;-76
2022/04/18 05:55:40;;;;;;;8.88;3.80;;;6.30;99.90;;;;;;4996378;28;20053;-76
2022/04/18 05:58:05;;;;;;;9.75;4.30;;;6.40;99.90;;;;;;5014577;28;20057;-76
2022/04/18 06:00:34;;;;;;;9.30;3.92;;;6.50;99.90;;;;;;5015870;28;20066;-76
2022/04/18 06:03:02;;;;;;;7.45;3.78;;;6.60;99.90;;;;;;5016201;28;20044;-76
2022/04/18 06:05:28;;;;;;;9.40;4.20;;;6.60;99.90;;;;;;5015511;28;20038;-77
2022/04/18 06:07:53;;;;;;;10.13;4.47;;;6.60;99.90;;;;;;4998017;28;20037;-77
2022/04/18 06:10:19;;;;;;;7.05;3.88;;;6.70;99.90;;;;;;5014699;28;20076;-77
2022/04/18 06:12:45;;;;;;;9.73;3.83;;;6.70;99.90;;;;;;5016412;28;20050;-76
2022/04/18 06:15:11;;;;;;;7.95;3.67;;;6.80;99.90;;;;;;4997766;28;20046;-76
2022/04/18 06:17:37;;;;;;;9.85;3.47;;;6.80;99.90;;;;;;4996650;28;20031;-78
2022/04/18 06:20:04;;;;;;;10.23;3.90;;;6.90;99.90;;;;;;5014774;28;20041;-76
2022/04/18 06:22:30;;;;;;;10.40;3.88;;;7.00;99.90;;;;;;5014558;28;20030;-77
2022/04/18 06:24:56;;;;;;;5.10;3.20;;;7.10;99.90;;;;;;5015209;28;20117;-77
2022/04/18 06:27:21;;;;;;;7.78;3.80;;;7.20;99.90;;;;;;5015041;28;20037;-77
2022/04/18 06:29:47;;;;;;;8.38;3.63;;;7.30;99.90;;;;;;4997482;28;20033;-77
2022/04/18 06:32:13;;;;;;;5.38;3.20;;;7.30;99.90;;;;;;5014219;28;20483;-75
2022/04/18 06:34:39;;;;;;;4.88;3.33;;;7.40;99.90;;;;;;5014486;28;20038;-76
2022/04/18 06:37:05;;;;;;;3.65;2.65;;;7.50;99.90;;;;;;4994668;28;20375;-76
2022/04/18 06:39:31;;;;;;;4.78;3.10;;;7.60;99.90;;;;;;4994808;28;20030;-76
2022/04/18 06:42:03;;;;;;;9.00;4.72;;;7.60;99.90;;;;;;5012741;28;20086;-77
2022/04/18 06:44:30;;;;;;;8.63;4.15;;;7.70;99.90;;;;;;5012611;28;20073;-78
2022/04/18 06:46:55;;;;;;;6.90;3.88;;;7.80;99.90;;;;;;4994087;28;20707;-77
2022/04/18 06:49:21;;;;;;;6.28;3.40;;;7.90;99.90;;;;;;5014097;28;20083;-77
2022/04/18 06:51:47;;;;;;;6.18;2.88;;;8.00;99.90;;;;;;5015091;28;20050;-78
2022/04/18 06:54:12;;;;;;;7.55;3.75;;;8.10;99.90;;;;;;4996167;28;20022;-77
2022/04/18 06:59:22;;;;;;;5.22;3.22;;;8.30;99.90;;;;;;5014226;28;20061;-78
2022/04/18 07:01:47;;;;;;;5.38;3.22;;;8.40;99.90;;;;;;5012862;28;20029;-77
2022/04/18 07:04:13;;;;;;;4.90;3.25;;;8.50;99.90;;;;;;5014106;28;20030;-78
2022/04/18 07:06:40;;;;;;;11.55;3.67;;;8.60;99.90;;;;;;4997807;28;20030;-77
2022/04/18 07:09:05;;;;;;;9.13;3.90;;;8.80;99.90;;;;;;4996977;28;20049;-75
2022/04/18 07:11:31;;;;;;;7.10;3.58;;;8.90;99.90;;;;;;4996701;28;20022;-78
2022/04/18 07:13:56;;;;;;;7.13;3.63;;;9.00;99.90;;;;;;5013686;28;20034;-77
2022/04/18 07:16:22;;;;;;;5.05;2.78;;;9.10;99.90;;;;;;5014283;28;20037;-77
2022/04/18 07:18:48;;;;;;;9.32;3.45;;;9.30;99.90;;;;;;5014085;28;20029;-78
2022/04/18 07:21:13;;;;;;;8.77;3.72;;;9.50;99.90;;;;;;4994660;28;20038;-77
2022/04/18 07:23:39;;;;;;;7.78;3.15;;;9.50;99.90;;;;;;5013393;28;20022;-79
2022/04/18 07:26:10;;;;;;;5.88;3.10;;;9.70;99.90;;;;;;5011914;28;20041;-78
2022/04/18 07:28:39;;;;;;;8.23;3.17;;;9.80;99.90;;;;;;5013467;28;20076;-77
2022/04/18 07:31:06;;;;;;;5.65;3.15;;;10.00;99.90;;;;;;4996132;28;20042;-78
2022/04/18 07:33:33;;;;;;;5.05;2.97;;;10.10;99.90;;;;;;4996354;28;20403;-77
2022/04/18 07:35:59;;;;;;;6.88;3.45;;;10.30;99.90;;;;;;5012623;28;20030;-78
2022/04/18 07:41:09;;;;;;;6.57;3.45;;;10.70;99.90;;;;;;5012610;28;20123;-78
2022/04/18 07:43:35;;;;;;;8.27;3.35;;;10.80;99.90;;;;;;5012876;28;20034;-79
2022/04/18 07:46:04;;;;;;;9.07;3.33;;;11.00;99.90;;;;;;4994970;28;20034;-80
2022/04/18 07:48:31;;;;;;;11.32;3.20;;;11.10;99.90;;;;;;5012979;28;20485;-78
2022/04/18 07:53:41;;;;;;;;;;;11.40;99.90;;;;;;5015059;28;20041;-77
2022/04/18 07:56:10;;;;;;;6.82;3.17;;;11.50;99.90;;;;;;4995146;28;19917;-78
2022/04/18 07:58:36;;;;;;;4.78;2.55;;;11.60;99.90;;;;;;4995594;28;20030;-79
2022/04/18 08:01:02;;;;;;;6.13;3.22;;;11.70;99.90;;;;;;5013910;28;20040;-80
2022/04/18 08:03:28;;;;;;;5.80;2.75;;;11.70;99.90;;;;;;5012869;28;20014;-77
2022/04/18 08:05:57;;;;;;;6.13;3.05;;;11.80;99.90;;;;;;4995698;28;20030;-79
2022/04/18 08:08:22;;;;;;;6.35;3.45;;;11.80;99.90;;;;;;4995523;28;20053;-79
2022/04/18 08:10:49;;;;;;;4.63;2.40;;;11.90;99.90;;;;;;5013450;28;20470;-76
2022/04/18 08:13:14;;;;;;;4.30;2.70;;;12.10;99.90;;;;;;4995353;28;20030;-80
2022/04/18 08:15:40;;;;;;;6.07;2.42;;;12.20;99.90;;;;;;5012532;28;20054;-78
2022/04/18 08:18:06;;;;;;;5.75;2.50;;;12.30;99.90;;;;;;5013531;28;20386;-78
2022/04/18 08:20:32;;;;;;;6.93;2.67;;;12.50;99.90;;;;;;4995899;28;20026;-76
2022/04/18 08:22:59;;;;;;;10.27;3.17;;;12.50;99.90;;;;;;5012962;28;20034;-76
2022/04/18 08:25:25;;;;;;;8.23;3.38;;;12.80;99.90;;;;;;4995944;28;20030;-77
2022/04/18 08:27:51;;;;;;;7.32;2.47;;;13.00;99.90;;;;;;5013815;28;20076;-78
2022/04/18 08:30:16;;;;;;;4.18;2.10;;;13.10;99.90;;;;;;5013045;28;20398;-78
2022/04/18 08:32:42;;;;;;;8.38;2.70;;;13.30;99.90;;;;;;4994426;28;20080;-77
2022/04/18 08:35:09;;;;;;;5.22;2.55;;;13.60;99.90;;;;;;4995979;28;20547;-78
2022/04/18 08:37:35;;;;;;;8.55;2.65;;;13.70;99.90;;;;;;4995521;28;20022;-79
2022/04/18 08:40:03;;;;;;;5.53;2.45;;;13.90;99.90;;;;;;5014383;28;20030;-79
2022/04/18 08:42:36;;;;;;;4.88;2.25;;;14.20;99.90;;;;;;5013284;28;20073;-76
2022/04/18 08:45:04;;;;;;;5.53;2.70;;;14.40;99.90;;;;;;5012336;28;20098;-76
2022/04/18 08:53:03;;;;;;;5.38;2.22;;;15.00;99.90;;;;;;5014224;28;20069;-77
2022/04/18 08:55:30;;;;;;;3.38;1.63;;;15.10;99.90;;;;;;4995413;28;20038;-77
2022/04/18 08:57:56;;;;;;;3.75;1.75;;;15.30;99.60;;;;;;5012711;28;20101;-77
2022/04/18 09:00:30;;;;;;;5.65;2.53;;;15.40;99.90;;;;;;5013079;28;20422;-77
2022/04/18 09:02:56;;;;;;;8.10;2.22;;;15.40;99.80;;;;;;5012339;28;20035;-77
2022/04/18 09:05:54;;;;;;;5.65;1.90;;;15.50;98.90;;;;;;4997374;28;20105;-77
2022/04/18 09:08:29;;;;;;;5.03;1.90;;;15.60;98.90;;;;;;4995946;28;20105;-74
2022/04/18 09:10:55;;;;;;;5.68;2.83;;;15.70;99.20;;;;;;5012173;28;20077;-75
2022/04/18 09:13:24;;;;;;;5.65;1.77;;;15.80;98.80;;;;;;4994466;28;20030;-73
2022/04/18 09:15:49;;;;;;;5.55;1.88;;;15.80;98.10;;;;;;5011933;28;20034;-78
2022/04/18 09:18:20;;;;;;;4.30;1.77;;;16.00;98.40;;;;;;5014051;28;20227;-77
2022/04/18 09:20:52;;;;;;;4.30;2.08;;;16.00;96.60;;;;;;5012301;28;20102;-80
2022/04/18 09:23:22;;;;;;;3.45;1.83;;;16.00;95.50;;;;;;5011646;28;20030;-79
2022/04/18 09:25:58;;;;;;;3.92;1.17;;;16.00;96.10;;;;;;5009738;28;20089;-71
2022/04/18 09:28:29;;;;;;;3.90;1.83;;;16.20;95.80;;;;;;5013273;28;20101;-77
2022/04/18 09:31:07;;;;;;;6.00;1.70;;;16.20;94.30;;;;;;5012168;28;20057;-76
2022/04/18 09:33:40;;;;;;;3.92;1.73;;;16.10;93.80;;;;;;4994627;28;20502;-77
2022/04/18 09:36:15;;;;;;;1.98;1.42;;;16.20;93.40;;;;;;5011840;28;20034;-77
2022/04/18 09:38:51;;;;;;;1.95;1.00;;;16.30;93.50;;;;;;5012677;28;20030;-75
2022/04/18 09:41:22;;;;;;;4.00;1.67;;;16.40;93.20;;;;;;5012256;28;20482;-78
2022/04/18 09:43:53;;;;;;;3.28;1.45;;;16.50;93.80;;;;;;5011685;28;20027;-80
2022/04/18 09:46:20;;;;;;;5.38;1.95;;;16.70;94.20;;;;;;4993989;28;20022;-77
2022/04/18 09:48:47;;;;;;;9.93;1.48;;;17.00;94.00;;;;;;5010754;28;20049;-77
2022/04/18 09:51:16;;;;;;;4.75;1.58;;;17.20;93.40;;;;;;4993872;28;20022;-74
2022/04/18 09:53:45;;;;;;;3.03;1.13;;;17.20;91.80;;;;;;5009905;28;20022;-77
2022/04/18 09:56:15;;;;;;;5.53;1.70;;;17.30;91.60;;;;;;4993600;28;20041;-75
2022/04/18 09:58:41;;;;;;;4.03;1.65;;;17.20;91.20;;;;;;5013621;28;20030;-74
2022/04/18 10:01:07;;;;;;;2.78;1.48;;;17.20;91.20;;;;;;4997624;28;20033;-78
2022/04/18 10:03:34;;;;;;;2.00;1.15;;;17.20;90.80;;;;;;4997243;28;20070;-76
2022/04/18 10:06:02;;;;;;;4.93;1.73;;;17.30;90.20;;;;;;5014965;28;20033;-75
2022/04/18 10:08:34;;;;;;;1.83;1.17;;;17.30;90.80;;;;;;4999139;28;20030;-77
2022/04/18 10:11:03;;;;;;;9.57;2.15;;;17.30;90.90;;;;;;4998058;28;20026;-77
2022/04/18 10:13:30;;;;;;;1.60;1.15;;;17.40;91.30;;;;;;4997863;28;20084;-75
2022/04/18 10:15:58;;;;;;;5.35;1.77;;;17.40;89.20;;;;;;4997884;28;20037;-74
2022/04/18 10:18:24;;;;;;;4.70;1.55;;;17.30;89.40;;;;;;5015688;28;20025;-74
2022/04/18 10:21:08;;;;;;;2.58;1.27;;;17.40;90.00;;;;;;5014680;28;20035;-77
2022/04/18 10:23:48;;;;;;;2.67;1.55;;;17.50;90.10;;;;;;5015238;28;20053;-76
2022/04/18 10:26:48;;;;;;;3.72;1.70;;;17.70;90.50;;;;;;4997033;28;20029;-76
2022/04/18 10:29:22;;;;;;;2.92;2.03;;;18.00;90.40;;;;;;4997639;28;20066;-76
2022/04/18 10:31:52;;;;;;;7.18;1.85;;;18.20;89.80;;;;;;5014962;28;20018;-78
2022/04/18 10:34:26;;;;;;;4.40;1.83;;;18.30;90.10;;;;;;5014723;28;20021;-75
2022/04/18 10:36:54;;;;;;;5.30;1.85;;;18.50;90.30;;;;;;5015119;28;20048;-77
2022/04/18 10:39:20;;;;;;;5.00;2.20;;;18.60;90.20;;;;;;4997295;28;20018;-77
2022/04/18 10:41:47;;;;;;;3.47;1.70;;;18.80;90.40;;;;;;5014081;28;20040;-75
2022/04/18 10:44:18;;;;;;;3.60;1.60;;;18.90;88.50;;;;;;5000173;28;20072;-75
2022/04/18 10:47:05;;;;;;;2.60;1.42;;;18.90;87.00;;;;;;5015229;28;20038;-78
2022/04/18 10:49:31;;;;;;;2.90;2.00;;;18.90;87.20;;;;;;4998975;28;20057;-75
2022/04/18 10:52:08;;;;;;;3.38;1.60;;;19.10;88.30;;;;;;5016387;28;20049;-74
2022/04/18 10:54:34;;;;;;;4.30;1.48;;;19.30;86.60;;;;;;4996894;28;20025;-76
2022/04/18 10:57:05;;;;;;;3.05;1.35;;;19.40;87.20;;;;;;4998342;28;20022;-77
2022/04/18 10:59:42;;;;;;;3.10;1.48;;;19.50;88.20;;;;;;5014841;28;20049;-79
2022/04/18 11:02:30;;;;;;;4.93;1.83;;;19.70;85.20;;;;;;5014617;28;20065;-75
2022/04/18 11:04:55;;;;;;;3.20;1.50;;;19.80;87.00;;;;;;5014462;28;20045;-78
2022/04/18 11:07:40;;;;;;;3.45;1.70;;;19.90;86.90;;;;;;5013885;28;20041;-78
2022/04/18 11:10:19;;;;;;;6.35;2.13;;;20.00;85.70;;;;;;4995484;28;20030;-77
2022/04/18 11:12:45;;;;;;;6.43;2.05;;;20.20;84.60;;;;;;5014082;28;20026;-78
2022/04/18 11:15:10;;;;;;;7.57;1.75;;;20.40;87.70;;;;;;4997438;28;20058;-73
2022/04/18 11:17:41;;;;;;;5.85;2.25;;;20.70;84.30;;;;;;5013651;28;20052;-76
2022/04/18 11:20:34;;;;;;;2.97;1.33;;;20.70;81.30;;;;;;4996233;28;20121;-76
2022/04/18 11:23:23;;;;;;;2.20;1.38;;;20.60;79.40;;;;;;5006068;28;20035;-74
2022/04/18 11:25:54;;;;;;;4.03;1.50;;;20.60;81.50;;;;;;4996500;28;20038;-74
2022/04/18 11:28:19;;;;;;;4.10;1.48;;;20.50;82.60;;;;;;5013858;28;20053;-78
2022/04/18 11:30:45;;;;;;;3.45;1.60;;;20.40;82.20;;;;;;4996307;28;20034;-78
2022/04/18 11:33:11;;;;;;;6.93;2.25;;;20.50;83.50;;;;;;4996379;28;20034;-77
2022/04/18 11:35:37;;;;;;;3.40;1.92;;;20.60;82.20;;;;;;5013835;28;20425;-80
2022/04/18 11:38:10;;;;;;;4.38;1.83;;;20.70;82.90;;;;;;5013310;28;20082;-78
2022/04/18 11:40:38;;;;;;;2.90;1.60;;;21.00;82.60;;;;;;5013548;28;20022;-80
2022/04/18 11:43:18;;;;;;;2.60;1.48;;;21.10;82.00;;;;;;5014066;28;20030;-78
2022/04/18 11:45:44;;;;;;;4.28;1.38;;;21.30;80.20;;;;;;4996284;28;20022;-77
2022/04/18 11:48:13;;;;;;;3.05;1.85;;;21.40;81.70;;;;;;5014154;28;20100;-79
2022/04/18 11:50:43;;;;;;;3.97;1.83;;;21.50;80.00;;;;;;5012005;28;20542;-80
2022/04/18 11:53:11;;;;;;;5.13;1.60;;;21.70;80.80;;;;;;5011826;28;20498;-78
2022/04/18 11:55:49;;;;;;;5.95;1.83;;;21.80;79.20;;;;;;5012818;28;20106;-78
2022/04/18 11:58:23;;;;;;;3.17;1.52;;;22.00;78.60;;;;;;4995219;28;20034;-78
2022/04/18 12:09:14;;;;;;;3.40;1.48;;;21.90;74.90;;;;;;5013353;28;20037;-78
2022/04/18 12:11:40;;;;;;;2.22;1.30;;;21.90;76.10;;;;;;5013352;28;20033;-76
2022/04/18 12:14:06;;;;;;;5.15;1.73;;;22.10;75.80;;;;;;5011453;28;20041;-77
2022/04/18 12:16:36;;;;;;;3.15;1.63;;;22.20;73.70;;;;;;4995368;28;20097;-77
2022/04/18 12:19:03;;;;;;;2.92;1.45;;;22.30;75.00;;;;;;4991669;28;20033;-78
2022/04/18 12:21:33;;;;;;;3.80;1.75;;;22.40;74.10;;;;;;4995778;28;20025;-79
2022/04/18 12:24:00;;;;;;;2.33;1.00;;;22.60;75.80;;;;;;5015302;28;20022;-78
2022/04/18 12:26:33;;;;;;;4.28;1.10;;;22.70;74.60;;;;;;4994405;28;20105;-79
2022/04/18 12:29:03;;;;;;;2.28;1.20;;;22.90;75.40;;;;;;5009817;28;20049;-76
2022/04/18 12:31:30;;;;;;;4.72;1.90;;;23.00;75.50;;;;;;5014741;28;20031;-73
2022/04/18 12:33:56;;;;;;;2.53;1.50;;;23.10;75.50;;;;;;5013212;28;20080;-76
2022/04/18 12:36:25;;;;;;;2.70;1.60;;;23.10;74.80;;;;;;5009446;28;20034;-77
2022/04/18 12:38:52;;;;;;;3.17;1.77;;;23.20;74.50;;;;;;5000340;28;20030;-76
2022/04/18 12:41:40;;;;;;;5.47;1.73;;;23.30;73.80;;;;;;5012088;28;20057;-78
2022/04/18 12:44:12;;;;;;;2.50;1.42;;;23.40;72.50;;;;;;4992293;28;21407;-77
2022/04/18 12:46:41;;;;;;;3.53;1.42;;;23.50;72.30;;;;;;5010534;28;20022;-76
2022/04/18 12:49:10;;;;;;;3.10;1.48;;;23.50;70.30;;;;;;5010142;28;20426;-74
2022/04/18 12:51:43;;;;;;;1.75;0.95;;;23.50;69.60;;;;;;5012277;28;20041;-79
2022/04/18 12:54:22;;;;;;;2.40;1.23;;;23.60;70.20;;;;;;5012316;28;20052;-77
2022/04/18 12:56:50;;;;;;;3.30;1.15;;;23.80;70.60;;;;;;5011471;28;20045;-78
2022/04/18 12:59:27;;;;;;;3.28;1.45;;;24.00;70.00;;;;;;5009877;28;20026;-79
2022/04/18 13:02:05;;;;;;;2.85;1.00;;;24.20;71.20;;;;;;4993041;28;20053;-76
2022/04/18 13:04:30;;;;;;;3.30;1.48;;;24.50;69.70;;;;;;4994725;28;20029;-79
2022/04/18 13:07:02;;;;;;;2.42;1.08;;;24.70;71.60;;;;;;5010031;28;20022;-78
2022/04/18 13:09:29;;;;;;;2.30;1.45;;;24.80;69.10;;;;;;5024601;28;20062;-79
2022/04/18 13:12:03;;;;;;;2.22;1.50;;;24.80;69.80;;;;;;4994956;28;20046;-80
2022/04/18 13:14:29;;;;;;;2.17;1.17;;;24.70;67.80;;;;;;4994761;28;20053;-78
2022/04/18 13:17:07;;;;;;;2.55;1.40;;;24.80;69.80;;;;;;5012357;28;20284;-78
2022/04/18 13:19:32;;;;;;;2.22;1.13;;;25.00;68.00;;;;;;5012946;28;20053;-78
2022/04/18 13:21:58;;;;;;;3.72;1.85;;;25.00;68.40;;;;;;5011824;28;20057;-79
2022/04/18 13:24:23;;;;;;;3.08;1.40;;;25.00;67.80;;;;;;5012595;28;20403;-78
2022/04/18 13:26:49;;;;;;;1.98;1.25;;;25.00;66.80;;;;;;5011910;28;20025;-75